Список аэропортов
Фактическая погода:

21 апреля, 18:50
Температура: +21°C (+21.0*)
Ветер: восточный 3 м/с
Давление: *765 мм
Без существ. явл.
Время (МСК)Темп. СВетерВлажностьДавлениеОблачностьОсадки
15:00+19В, 2 м/с30%1024 гПаясно
16:00+19В, 2 м/с29%1023 гПаясно
17:00+20СВ, 1 м/с28%1022 гПаясно
18:00+20СВ, 2 м/с27%1022 гПаясно
19:00+20СВ, 2 м/с27%1021 гПаясно
20:00+19СВ, 3 м/с30%1021 гПаясно
21:00+17СВ, 2 м/с36%1021 гПаясно
22:00+15СВ, 3 м/с45%1021 гПаясно
23:00+14СВ, 5 м/с45%1021 гПаясно
22 апреля
00:00+13СВ, 5 м/с45%1022 гПаясно
01:00+12СВ, 4 м/с48%1021 гПаясно
02:00+11СВ, 4 м/с51%1021 гПаясно
03:00+10СВ, 3 м/с55%1021 гПаясно
04:00+8СВ, 2 м/с61%1021 гПаясно
05:00+7СВ, 2 м/с67%1021 гПаясно
06:00+6СВ, 2 м/с73%1020 гПаясно
07:00+4СВ, 1 м/с82%1020 гПас прояснениями
08:00+5СВ, 2 м/с80%1020 гПаоблачно
09:00+8В, 4 м/с66%1021 гПаоблачно
10:00+10В, 5 м/с55%1021 гПас прояснениями
11:00+12В, 6 м/с48%1020 гПамалооблачно
12:00+14В, 7 м/с44%1020 гПамалооблачно
13:00+16В, 8 м/с35%1020 гПаясно
14:00+17В, 7 м/с32%1020 гПаясно
15:00+18В, 7 м/с29%1019 гПаясно
16:00+19В, 7 м/с29%1019 гПаясно
17:00+19В, 8 м/с28%1018 гПаясно
18:00+20В, 8 м/с30%1018 гПаясно
19:00+20В, 9 м/с30%1018 гПаясно
20:00+19В, 9 м/с30%1018 гПаясно
21:00+18В, 8 м/с32%1018 гПаясно
22:00+16В, 7 м/с35%1018 гПаясно
23:00+15В, 5 м/с40%1018 гПаясно
23 апреля
00:00+14В, 4 м/с47%1018 гПаясно
01:00+13В, 5 м/с54%1018 гПаясно
02:00+14В, 7 м/с52%1018 гПаясно
03:00+13В, 8 м/с50%1018 гПаясно
04:00+13В, 8 м/с50%1018 гПаясно
05:00+12В, 8 м/с50%1018 гПаясно
06:00+11В, 8 м/с47%1017 гПаясно
07:00+10В, 7 м/с51%1017 гПаясно
08:00+10В, 7 м/с52%1017 гПаясно
09:00+11В, 9 м/с47%1016 гПаясно
10:00+12В, 10 м/с41%1016 гПаясно
11:00+14В, 10 м/с39%1016 гПаясно
12:00+15В, 10 м/с38%1016 гПаясно
13:00+17В, 10 м/с38%1015 гПаясно
14:00+18В, 11 м/с36%1014 гПаясно
15:00+18В, 11 м/с35%1013 гПаясно